Undaunted — WDB8103 — position and weather

sailwx.info

Track history (hours):
 
Tides and Currents Weather Stations Pressure Air Temp Water Temp Dewpoint Dewpoint Depression Visibility Wind Speed Wind Dir Waves Ship Positions

Undaunted

Owner: PERE MARQUETTE SHIPPING COMPANY, LUDINGTON, MI. More information available from US FCC via Universal Licensing System and Coast Guard Vessel Documentation Center.

Last reported at 2018-May-17 12:27 UTC. Time now 2018-May-21 15:05 UTC.
Position N 45°09' W 085°47'.

Length 24 m; draft 6 m.

Type: Cargo ship. MMSI: 366780000.

Date/timePositionNaut miles runAvg speedWind from/ knotsBaromVisibWave heightAir tempDewpointWater temp
2018-May-17 12:27N 45°09' W 085°47'4 8.3
2018-May-17 12:00N 45°12' W 085°43'4 8.4
2018-May-17 11:30N 45°15' W 085°40'4 8.4
2018-May-17 11:00N 45°18' W 085°36'4 8.5
2018-May-17 10:30N 45°22' W 085°32'4 8.4
2018-May-17 10:00N 45°25' W 085°29'4 8.5
2018-May-17 09:30N 45°28' W 085°25'4 8.4
2018-May-17 09:00N 45°32' W 085°21'4 8.4
2018-May-17 08:30N 45°35' W 085°18'4 8.4
2018-May-17 08:00N 45°38' W 085°14'4 8.4
2018-May-17 07:30N 45°42' W 085°11'4 8.4
2018-May-17 07:00N 45°46' W 085°09'4 7.7
2018-May-17 06:30N 45°50' W 085°08'4 8.0
2018-May-17 06:00N 45°50' W 085°02'4 8.2
2018-May-17 05:30N 45°50' W 084°56'4 8.3
2018-May-17 04:58N 45°49' W 084°50'45 4.0
2018-May-16 17:39N 45°37' W 083°48'210.2
2018-May-16 17:28N 45°35' W 083°46'510.3
2018-May-16 17:00N 45°32' W 083°42'510.2
2018-May-16 16:30N 45°28' W 083°37'  
Track history (hours):
 
Tides and Currents Weather Stations Pressure Air Temp Water Temp Dewpoint Dewpoint Depression Visibility Wind Speed Wind Dir Waves Ship Positions

Undaunted

Owner: PERE MARQUETTE SHIPPING COMPANY, LUDINGTON, MI. More information available from US FCC via Universal Licensing System and Coast Guard Vessel Documentation Center.

Last reported at 2018-May-17 12:27 UTC. Time now 2018-May-21 15:05 UTC.
Position N 45°09' W 085°47'.

Length 24 m; draft 6 m.

Type: Cargo ship. MMSI: 366780000.

Date/timePositionNaut miles runAvg speedWind from/ knotsBaromVisibWave heightAir tempDewpointWater temp
2018-May-17 12:27N 45°09' W 085°47'4 8.3
2018-May-17 12:00N 45°12' W 085°43'4 8.4
2018-May-17 11:30N 45°15' W 085°40'4 8.4
2018-May-17 11:00N 45°18' W 085°36'4 8.5
2018-May-17 10:30N 45°22' W 085°32'4 8.4
2018-May-17 10:00N 45°25' W 085°29'4 8.5
2018-May-17 09:30N 45°28' W 085°25'4 8.4
2018-May-17 09:00N 45°32' W 085°21'4 8.4
2018-May-17 08:30N 45°35' W 085°18'4 8.4
2018-May-17 08:00N 45°38' W 085°14'4 8.4
2018-May-17 07:30N 45°42' W 085°11'4 8.4
2018-May-17 07:00N 45°46' W 085°09'4 7.7
2018-May-17 06:30N 45°50' W 085°08'4 8.0
2018-May-17 06:00N 45°50' W 085°02'4 8.2
2018-May-17 05:30N 45°50' W 084°56'4 8.3
2018-May-17 04:58N 45°49' W 084°50'45 4.0
2018-May-16 17:39N 45°37' W 083°48'210.2
2018-May-16 17:28N 45°35' W 083°46'510.3
2018-May-16 17:00N 45°32' W 083°42'510.2
2018-May-16 16:30N 45°28' W 083°37'  

Dump ship's entire track history